createdAt,value
2023-02-17T00:03:33.211Z,9.10
2023-02-17T00:06:10.926Z,9.67
2023-02-17T00:08:42.588Z,10.20
2023-02-17T00:11:21.007Z,8.43
2023-02-17T00:13:49.508Z,8.50
2023-02-17T00:16:26.818Z,8.10
2023-02-17T00:18:57.212Z,9.10
2023-02-17T00:21:31.165Z,7.90
2023-02-17T00:24:01.353Z,9.00
2023-02-17T00:26:29.775Z,9.63
2023-02-17T00:29:00.470Z,10.63
2023-02-17T00:31:34.501Z,28.87
2023-02-17T00:34:10.937Z,23.03
2023-02-17T00:36:42.639Z,22.97
2023-02-17T00:39:16.458Z,16.95
2023-02-17T00:41:49.267Z,13.00
2023-02-17T00:44:24.632Z,6.57
2023-02-17T00:46:57.176Z,8.73
2023-02-17T00:49:27.905Z,8.13
2023-02-17T00:51:58.400Z,7.27
2023-02-17T00:54:44.288Z,7.13
2023-02-17T00:57:15.105Z,6.20
2023-02-17T00:59:48.808Z,9.55
2023-02-17T01:02:27.863Z,7.03
2023-02-17T01:05:04.120Z,10.43
2023-02-17T01:07:42.501Z,8.77
2023-02-17T01:10:14.812Z,8.40
2023-02-17T01:12:55.069Z,8.27
2023-02-17T01:15:29.755Z,9.48
2023-02-17T01:18:03.439Z,10.90
2023-02-17T01:20:33.830Z,8.73
2023-02-17T01:23:14.886Z,10.00
2023-02-17T01:25:45.852Z,9.53
2023-02-17T01:28:22.781Z,9.23
2023-02-17T01:30:53.771Z,9.17
2023-02-17T01:33:30.113Z,10.68
2023-02-17T01:36:08.681Z,6.60
2023-02-17T01:38:50.019Z,7.10
2023-02-17T01:41:29.924Z,6.90
2023-02-17T01:44:19.674Z,5.30
2023-02-17T01:46:50.196Z,7.27
2023-02-17T01:49:29.944Z,6.67
2023-02-17T01:52:25.007Z,8.73
2023-02-17T01:55:11.453Z,8.37
2023-02-17T01:57:43.837Z,8.37
2023-02-17T02:00:15.437Z,6.47
2023-02-17T02:03:03.452Z,6.18
2023-02-17T02:05:42.882Z,6.77
2023-02-17T02:08:18.213Z,7.27
2023-02-17T02:10:49.527Z,5.67
2023-02-17T02:13:25.248Z,6.05
2023-02-17T02:16:29.469Z,7.43
2023-02-17T02:19:38.145Z,12.33
2023-02-17T02:22:26.943Z,8.37
2023-02-17T02:25:26.267Z,8.37
2023-02-17T02:28:33.870Z,7.27
2023-02-17T02:31:44.892Z,9.10
2023-02-17T02:34:32.226Z,8.30
2023-02-17T02:37:15.701Z,6.67
2023-02-17T02:39:49.660Z,6.70
2023-02-17T02:42:22.750Z,5.33
2023-02-17T02:45:00.237Z,5.90
2023-02-17T02:47:56.966Z,7.37
2023-02-17T02:51:00.733Z,6.43
2023-02-17T02:53:56.969Z,7.27
2023-02-17T02:57:03.920Z,7.23
2023-02-17T03:00:25.076Z,9.13
2023-02-17T03:06:44.125Z,8.73
2023-02-17T03:09:27.327Z,6.53
2023-02-17T03:12:08.597Z,5.07
2023-02-17T03:14:40.732Z,8.55
2023-02-17T03:17:10.012Z,5.30
2023-02-17T03:19:44.959Z,7.10
2023-02-17T03:22:30.760Z,7.53
2023-02-17T03:25:09.858Z,5.43
2023-02-17T03:27:41.729Z,8.30
2023-02-17T03:32:55.457Z,5.10
2023-02-17T03:35:26.194Z,6.87
2023-02-17T03:38:07.778Z,8.03
2023-02-17T03:40:38.254Z,5.55
2023-02-17T03:43:10.877Z,5.35
2023-02-17T03:45:41.619Z,5.18
2023-02-17T03:48:18.556Z,6.53
2023-02-17T03:50:49.347Z,7.70
2023-02-17T03:53:20.964Z,8.60
2023-02-17T03:55:49.948Z,8.25
2023-02-17T03:58:21.486Z,7.10
2023-02-17T04:00:49.229Z,8.63
2023-02-17T04:03:20.609Z,6.30
2023-02-17T04:06:05.619Z,8.43
2023-02-17T04:08:36.578Z,8.47
2023-02-17T04:11:18.115Z,7.40
2023-02-17T04:13:51.742Z,9.35
2023-02-17T04:16:23.367Z,5.70
2023-02-17T04:19:00.585Z,6.70
2023-02-17T04:21:31.349Z,7.43
2023-02-17T04:24:07.046Z,5.13
2023-02-17T04:26:39.588Z,5.53
2023-02-17T04:29:13.201Z,8.70
2023-02-17T04:31:44.503Z,9.57
2023-02-17T04:34:17.122Z,8.70
2023-02-17T04:36:50.456Z,9.53
2023-02-17T04:39:21.092Z,9.70
2023-02-17T04:41:51.390Z,10.57
2023-02-17T04:44:24.581Z,7.03
2023-02-17T04:47:07.906Z,9.67
2023-02-17T04:49:35.993Z,9.60
2023-02-17T04:52:22.665Z,9.07
2023-02-17T04:55:03.752Z,8.03
2023-02-17T04:57:33.963Z,8.33
2023-02-17T05:00:04.101Z,6.70
2023-02-17T05:02:44.264Z,5.33
2023-02-17T05:05:18.530Z,5.73
2023-02-17T05:07:50.708Z,6.20
2023-02-17T05:10:34.427Z,7.37
2023-02-17T05:13:05.293Z,7.57
2023-02-17T05:18:26.639Z,7.77
2023-02-17T05:21:05.029Z,7.70
2023-02-17T05:23:49.093Z,6.83
2023-02-17T05:26:23.421Z,9.47
2023-02-17T05:28:59.014Z,8.97
2023-02-17T05:31:32.734Z,7.53
2023-02-17T05:34:06.838Z,8.30
2023-02-17T05:36:34.545Z,8.50
2023-02-17T05:39:18.663Z,7.90
2023-02-17T05:41:48.766Z,6.43
2023-02-17T05:44:19.244Z,9.90
2023-02-17T05:46:51.477Z,11.07
2023-02-17T05:49:23.810Z,8.07
2023-02-17T05:51:53.816Z,8.10
2023-02-17T05:54:24.960Z,6.63
2023-02-17T05:56:55.258Z,5.57
2023-02-17T05:59:29.282Z,6.53
2023-02-17T06:02:05.013Z,7.63
2023-02-17T06:04:35.497Z,9.13
2023-02-17T06:07:09.960Z,5.43
2023-02-17T06:09:47.296Z,6.27
2023-02-17T06:12:19.155Z,7.97
2023-02-17T06:14:50.565Z,7.40
2023-02-17T06:17:24.279Z,7.88
2023-02-17T06:19:57.759Z,9.13
2023-02-17T06:22:33.922Z,6.53
2023-02-17T06:25:04.871Z,5.53
2023-02-17T06:27:37.565Z,9.43
2023-02-17T06:32:52.840Z,7.73
2023-02-17T06:35:31.576Z,8.00
2023-02-17T06:38:04.326Z,6.90
2023-02-17T06:40:35.177Z,6.50
2023-02-17T06:43:08.433Z,9.10
2023-02-17T06:45:39.614Z,5.97
2023-02-17T06:48:13.063Z,6.05
2023-02-17T06:50:47.913Z,7.37
2023-02-17T06:53:18.025Z,7.47
2023-02-17T06:55:49.353Z,5.73
2023-02-17T06:58:20.660Z,6.95
2023-02-17T07:00:49.916Z,6.00
2023-02-17T07:03:20.578Z,7.47
2023-02-17T07:05:52.997Z,7.13
2023-02-17T07:08:26.272Z,7.73
2023-02-17T07:10:56.926Z,7.20
2023-02-17T07:13:25.087Z,6.80
2023-02-17T07:16:09.490Z,8.63
2023-02-17T07:18:42.658Z,9.97
2023-02-17T07:21:13.989Z,12.80
2023-02-17T07:23:44.158Z,8.40
2023-02-17T07:26:20.407Z,10.60
2023-02-17T07:28:49.593Z,9.23
2023-02-17T07:31:25.960Z,11.40
2023-02-17T07:34:03.355Z,7.40
2023-02-17T07:36:42.756Z,10.13
2023-02-17T07:39:16.430Z,10.27
2023-02-17T07:41:57.202Z,10.47
2023-02-17T07:44:31.029Z,9.97
2023-02-17T07:47:08.153Z,11.20
2023-02-17T07:49:42.263Z,10.27
2023-02-17T07:52:24.887Z,8.60
2023-02-17T07:54:58.020Z,8.97
2023-02-17T07:57:28.482Z,13.03
2023-02-17T07:59:56.495Z,10.70
2023-02-17T08:02:30.376Z,9.83
2023-02-17T08:05:01.925Z,9.67
2023-02-17T08:07:33.539Z,10.70
2023-02-17T08:10:21.256Z,10.52
2023-02-17T08:13:10.523Z,7.43
2023-02-17T08:15:46.192Z,9.17
2023-02-17T08:18:26.992Z,13.20
2023-02-17T08:20:59.328Z,11.03
2023-02-17T08:23:36.076Z,12.37
2023-02-17T08:26:11.042Z,11.70
2023-02-17T08:28:47.470Z,11.53
2023-02-17T08:31:24.098Z,12.47
2023-02-17T08:33:54.819Z,10.10
2023-02-17T08:36:25.624Z,10.57
2023-02-17T08:38:55.326Z,9.87
2023-02-17T08:41:44.759Z,9.88
2023-02-17T08:44:32.246Z,7.73
2023-02-17T08:47:05.105Z,8.17
2023-02-17T08:49:39.751Z,8.57
2023-02-17T08:52:11.585Z,7.73
2023-02-17T08:54:41.208Z,8.33
2023-02-17T08:57:21.022Z,6.83
2023-02-17T08:59:52.719Z,7.10
2023-02-17T09:02:26.089Z,8.63
2023-02-17T09:04:57.937Z,8.13
2023-02-17T09:07:29.541Z,6.78
2023-02-17T09:10:01.681Z,8.83
2023-02-17T09:12:30.902Z,8.88
2023-02-17T09:15:00.739Z,8.20
2023-02-17T09:17:29.425Z,8.97
2023-02-17T09:20:01.076Z,8.20
2023-02-17T09:22:32.643Z,9.20
2023-02-17T09:25:04.950Z,9.85
2023-02-17T09:27:35.613Z,10.43
2023-02-17T09:30:05.978Z,9.48
2023-02-17T09:32:36.405Z,9.00
2023-02-17T09:37:45.501Z,8.50
2023-02-17T09:40:56.006Z,6.70
2023-02-17T09:43:34.478Z,8.40
2023-02-17T09:46:16.529Z,10.03
2023-02-17T09:48:56.831Z,7.83
2023-02-17T09:51:39.606Z,7.23
2023-02-17T09:54:53.512Z,9.07
2023-02-17T09:57:32.429Z,9.60
2023-02-17T10:00:30.364Z,8.47
2023-02-17T10:03:34.860Z,8.87
2023-02-17T10:06:17.803Z,6.70
2023-02-17T10:09:02.417Z,7.27
2023-02-17T10:12:01.609Z,7.27
2023-02-17T10:18:22.156Z,6.87
2023-02-17T10:21:00.115Z,7.03
2023-02-17T10:23:37.913Z,5.87
2023-02-17T10:26:52.811Z,6.60
2023-02-17T10:30:19.741Z,7.03
2023-02-17T10:33:32.098Z,5.80
2023-02-17T10:36:39.448Z,6.20
2023-02-17T10:39:20.049Z,5.97
2023-02-17T10:41:50.684Z,7.67
2023-02-17T10:44:26.909Z,6.80
2023-02-17T10:47:02.085Z,6.33
2023-02-17T10:49:53.683Z,6.30
2023-02-17T10:52:40.237Z,7.67
2023-02-17T10:55:43.529Z,6.67
2023-02-17T10:58:25.397Z,7.27
2023-02-17T11:00:59.396Z,7.28
2023-02-17T11:03:33.248Z,8.20
2023-02-17T11:06:04.522Z,7.53
2023-02-17T11:08:48.013Z,5.90
2023-02-17T11:11:31.131Z,6.67
2023-02-17T11:14:23.425Z,5.73
2023-02-17T11:17:11.509Z,7.67
2023-02-17T11:19:44.803Z,6.10
2023-02-17T11:22:41.397Z,6.30
2023-02-17T11:25:36.024Z,5.83
2023-02-17T11:28:11.702Z,6.37
2023-02-17T11:33:40.506Z,4.83
2023-02-17T11:36:21.738Z,8.33
2023-02-17T11:38:59.575Z,6.68
2023-02-17T11:41:33.060Z,7.00
2023-02-17T11:44:06.766Z,5.83
2023-02-17T11:47:16.070Z,5.67
2023-02-17T11:50:08.960Z,4.70
2023-02-17T11:53:25.432Z,4.43
2023-02-17T11:56:09.531Z,4.30
2023-02-17T11:59:33.066Z,4.57
2023-02-17T12:02:19.776Z,4.43
2023-02-17T12:05:17.148Z,3.80
2023-02-17T12:08:30.947Z,4.63
2023-02-17T12:11:26.979Z,4.13
2023-02-17T12:14:19.673Z,3.67
2023-02-17T12:17:28.127Z,4.00
2023-02-17T12:20:15.707Z,3.60
2023-02-17T12:26:06.266Z,4.63
2023-02-17T12:29:07.281Z,4.10
2023-02-17T12:31:56.548Z,4.73
2023-02-17T12:35:10.023Z,3.63
2023-02-17T12:37:53.880Z,4.10
2023-02-17T12:40:43.692Z,4.13
2023-02-17T12:43:34.099Z,3.67
2023-02-17T12:46:08.009Z,4.37
2023-02-17T12:52:27.989Z,2.43
2023-02-17T12:55:01.481Z,2.80
2023-02-17T12:58:14.533Z,4.13
2023-02-17T13:00:50.197Z,3.53
2023-02-17T13:03:21.436Z,3.30
2023-02-17T13:05:59.974Z,3.65
2023-02-17T13:08:49.413Z,4.53
2023-02-17T13:11:37.250Z,3.83
2023-02-17T13:21:16.183Z,5.07
2023-02-17T13:23:51.366Z,4.77
2023-02-17T13:26:28.514Z,6.07
2023-02-17T13:29:16.524Z,5.40
2023-02-17T13:31:59.849Z,5.37
2023-02-17T13:37:55.112Z,5.18
2023-02-17T13:40:26.032Z,4.57
2023-02-17T13:43:02.163Z,5.37
2023-02-17T13:45:38.931Z,4.77
2023-02-17T13:48:36.165Z,5.27
2023-02-17T13:51:10.449Z,5.50
2023-02-17T13:53:43.057Z,5.63
2023-02-17T13:58:54.575Z,6.65
2023-02-17T14:01:30.265Z,5.77
2023-02-17T14:04:09.966Z,6.70
2023-02-17T14:06:43.975Z,7.20
2023-02-17T14:09:28.718Z,7.80
2023-02-17T14:12:05.098Z,7.37
2023-02-17T14:14:43.394Z,7.03
2023-02-17T14:17:42.800Z,7.67
2023-02-17T14:20:38.961Z,5.83
2023-02-17T14:23:26.309Z,5.47
2023-02-17T14:26:01.596Z,6.83
2023-02-17T14:28:35.245Z,6.33
2023-02-17T14:31:13.672Z,7.10
2023-02-17T14:33:57.057Z,6.07
2023-02-17T14:36:48.388Z,7.03
2023-02-17T14:39:17.516Z,6.53
2023-02-17T14:42:00.378Z,7.47
2023-02-17T14:44:41.428Z,7.03
2023-02-17T14:47:15.314Z,6.38
2023-02-17T14:49:45.794Z,6.80
2023-02-17T14:52:25.252Z,7.85
2023-02-17T14:54:59.127Z,6.43
2023-02-17T14:57:40.686Z,7.27
2023-02-17T15:00:23.930Z,7.82
2023-02-17T15:02:58.950Z,6.97
2023-02-17T15:05:33.769Z,6.63
2023-02-17T15:08:02.769Z,6.10
2023-02-17T15:10:36.266Z,6.20
2023-02-17T15:13:14.118Z,5.73
2023-02-17T15:15:45.225Z,7.40
2023-02-17T15:18:20.626Z,6.78
2023-02-17T15:20:53.211Z,6.93
2023-02-17T15:23:28.921Z,7.53
2023-02-17T15:26:02.081Z,6.60
2023-02-17T15:28:39.402Z,5.73
2023-02-17T15:31:10.811Z,5.87
2023-02-17T15:33:41.636Z,8.05
2023-02-17T15:36:26.794Z,6.40
2023-02-17T15:39:03.920Z,5.40
2023-02-17T15:41:31.888Z,7.23
2023-02-17T15:44:09.959Z,7.43
2023-02-17T15:46:40.737Z,7.37
2023-02-17T15:49:19.346Z,6.50
2023-02-17T15:51:49.583Z,6.27
2023-02-17T15:54:30.287Z,7.87
2023-02-17T15:56:58.412Z,7.53
2023-02-17T15:59:28.038Z,6.67
2023-02-17T16:04:45.374Z,7.63
2023-02-17T16:07:29.081Z,8.17
2023-02-17T16:09:58.388Z,8.47
2023-02-17T16:12:32.976Z,6.97
2023-02-17T16:15:04.590Z,7.57
2023-02-17T16:20:28.926Z,7.43
2023-02-17T16:22:57.358Z,6.43
2023-02-17T16:25:28.806Z,7.63
2023-02-17T16:28:05.599Z,9.25
2023-02-17T16:30:40.390Z,7.87
2023-02-17T16:33:14.200Z,7.83
2023-02-17T16:35:51.201Z,8.00
2023-02-17T16:38:23.315Z,6.90
2023-02-17T16:40:57.085Z,7.97
2023-02-17T16:43:29.835Z,6.47
2023-02-17T16:46:11.057Z,7.30
2023-02-17T16:48:45.624Z,6.50
2023-02-17T16:51:29.054Z,8.57
2023-02-17T16:54:09.590Z,6.90
2023-02-17T16:56:45.872Z,6.93
2023-02-17T16:59:25.702Z,8.20
2023-02-17T17:01:55.290Z,7.38
2023-02-17T17:04:25.568Z,7.53
2023-02-17T17:06:56.266Z,8.53
2023-02-17T17:09:31.956Z,7.68
2023-02-17T17:12:08.506Z,7.17
2023-02-17T17:14:46.182Z,8.60
2023-02-17T17:17:16.544Z,7.33
2023-02-17T17:22:31.999Z,6.53
2023-02-17T17:25:20.700Z,6.10
2023-02-17T17:27:52.514Z,8.47
2023-02-17T17:35:30.912Z,6.93
2023-02-17T17:38:05.444Z,7.03
2023-02-17T17:40:48.629Z,6.97
2023-02-17T17:43:20.446Z,8.37
2023-02-17T17:46:24.244Z,6.70
2023-02-17T17:49:09.753Z,7.80
2023-02-17T17:51:50.157Z,7.67
2023-02-17T17:54:25.151Z,5.95
2023-02-17T17:56:55.871Z,7.70
2023-02-17T17:59:29.633Z,7.53
2023-02-17T18:01:58.554Z,12.83
2023-02-17T18:04:29.861Z,12.53
2023-02-17T18:07:04.080Z,8.15
2023-02-17T18:09:39.693Z,7.33
2023-02-17T18:12:18.148Z,12.17
2023-02-17T18:14:50.824Z,12.00
2023-02-17T18:17:27.952Z,9.20
2023-02-17T18:20:10.534Z,7.90
2023-02-17T18:22:41.826Z,7.83
2023-02-17T18:25:28.556Z,8.83
2023-02-17T18:28:02.875Z,8.07
2023-02-17T18:30:47.905Z,6.37
2023-02-17T18:33:32.691Z,8.40
2023-02-17T18:36:21.239Z,7.53
2023-02-17T18:39:08.154Z,11.27
2023-02-17T18:41:38.414Z,7.93
2023-02-17T18:44:09.420Z,8.67
2023-02-17T18:46:41.328Z,7.97
2023-02-17T18:51:45.935Z,5.87
2023-02-17T18:54:17.091Z,6.77
2023-02-17T18:56:48.773Z,5.75
2023-02-17T18:59:20.840Z,6.13
2023-02-17T19:02:04.803Z,6.60
2023-02-17T19:04:38.313Z,7.80
2023-02-17T19:07:09.585Z,8.30
2023-02-17T19:09:50.119Z,8.50
2023-02-17T19:12:21.073Z,7.13
2023-02-17T19:14:53.432Z,7.35
2023-02-17T19:17:31.599Z,5.97
2023-02-17T19:20:05.076Z,6.90
2023-02-17T19:22:54.838Z,7.47
2023-02-17T19:25:25.336Z,6.47
2023-02-17T19:28:06.411Z,7.73
2023-02-17T19:33:15.518Z,6.67
2023-02-17T19:35:55.242Z,7.10
2023-02-17T19:38:25.675Z,8.53
2023-02-17T19:41:05.577Z,7.87
2023-02-17T19:43:36.146Z,7.00
2023-02-17T19:46:15.055Z,8.53
2023-02-17T19:48:51.110Z,7.60
2023-02-17T19:51:30.339Z,8.63
2023-02-17T19:54:02.357Z,9.23
2023-02-17T19:56:33.133Z,7.67
2023-02-17T19:59:04.538Z,10.60
2023-02-17T20:01:37.008Z,9.75
2023-02-17T20:04:09.486Z,10.50
2023-02-17T20:06:51.943Z,10.50
2023-02-17T20:09:32.079Z,8.17
2023-02-17T20:12:02.663Z,8.30
2023-02-17T20:14:40.465Z,10.00
2023-02-17T20:17:11.741Z,7.63
2023-02-17T20:19:57.189Z,13.70
2023-02-17T20:22:28.184Z,9.97
2023-02-17T20:25:01.762Z,9.45
2023-02-17T20:27:35.497Z,10.60
2023-02-17T20:30:04.529Z,10.07
2023-02-17T20:32:39.128Z,11.43
2023-02-17T20:37:53.211Z,8.57
2023-02-17T20:40:26.488Z,8.50
2023-02-17T20:42:54.773Z,9.13
2023-02-17T20:45:29.160Z,9.37
2023-02-17T20:47:59.994Z,8.73
2023-02-17T20:50:34.460Z,7.63
2023-02-17T20:53:12.258Z,9.57
2023-02-17T20:55:42.273Z,9.40
2023-02-17T20:58:13.044Z,8.10
2023-02-17T21:00:47.768Z,6.87
2023-02-17T21:03:28.125Z,7.00
2023-02-17T21:06:07.596Z,7.47
2023-02-17T21:08:41.495Z,7.37
2023-02-17T21:11:12.823Z,6.43
2023-02-17T21:13:48.946Z,6.78
2023-02-17T21:16:24.748Z,8.43
2023-02-17T21:18:56.036Z,8.73
2023-02-17T21:21:34.954Z,9.60
2023-02-17T21:24:08.519Z,7.97
2023-02-17T21:26:41.662Z,8.50
2023-02-17T21:29:15.002Z,6.60
2023-02-17T21:31:49.401Z,6.67
2023-02-17T21:34:19.889Z,6.90
2023-02-17T21:39:47.156Z,7.43
2023-02-17T21:42:45.715Z,6.10
2023-02-17T21:45:17.811Z,8.50
2023-02-17T21:47:48.376Z,6.93
2023-02-17T21:50:17.140Z,6.77
2023-02-17T21:52:51.955Z,6.53
2023-02-17T21:55:20.528Z,8.17
2023-02-17T21:57:49.947Z,7.77
2023-02-17T22:00:23.762Z,5.63
2023-02-17T22:03:09.051Z,7.73
2023-02-17T22:05:43.002Z,6.83
2023-02-17T22:08:17.641Z,9.53
2023-02-17T22:10:58.291Z,8.70
2023-02-17T22:13:33.045Z,8.90
2023-02-17T22:16:03.524Z,8.43
2023-02-17T22:18:48.961Z,10.57
2023-02-17T22:21:24.785Z,7.53
2023-02-17T22:23:56.045Z,10.37
2023-02-17T22:26:29.873Z,8.37
2023-02-17T22:29:09.838Z,8.80
2023-02-17T22:31:38.599Z,6.97
2023-02-17T22:34:13.334Z,11.17
2023-02-17T22:36:48.430Z,8.60
2023-02-17T22:39:19.401Z,8.23
2023-02-17T22:41:50.544Z,8.73
2023-02-17T22:44:24.460Z,7.65
2023-02-17T22:46:59.097Z,9.10
2023-02-17T22:49:42.024Z,8.67
2023-02-17T22:52:13.510Z,7.30
2023-02-17T22:54:52.287Z,7.60
2023-02-17T22:57:24.940Z,6.83
2023-02-17T22:59:56.697Z,9.00
2023-02-17T23:02:37.611Z,8.98
2023-02-17T23:05:11.395Z,7.90
2023-02-17T23:07:48.791Z,10.43
2023-02-17T23:10:25.679Z,6.63
2023-02-17T23:12:59.301Z,6.13
2023-02-17T23:15:42.389Z,8.80
2023-02-17T23:20:57.095Z,7.03
2023-02-17T23:23:30.470Z,7.60
2023-02-17T23:26:04.282Z,6.90
2023-02-17T23:28:35.577Z,8.00
2023-02-17T23:31:09.962Z,6.53
2023-02-17T23:33:41.159Z,6.07
2023-02-17T23:36:18.247Z,6.30
2023-02-17T23:38:48.539Z,7.23
2023-02-17T23:41:22.064Z,9.57
2023-02-17T23:43:51.857Z,7.27
2023-02-17T23:46:32.834Z,6.33
2023-02-17T23:49:10.453Z,7.10
2023-02-17T23:51:50.563Z,6.97
2023-02-17T23:54:24.473Z,6.30
2023-02-17T23:57:00.130Z,7.20
2023-02-17T23:59:40.697Z,7.43
